Time;durP1;ratioP1;P1;durP2;ratioP2;P2;SDS_P1;SDS_P2;PMS_P1;PMS_P2;Temp;Humidity;BMP_temperature;BMP_pressure;BME280_temperature;BME280_humidity;BME280_pressure;Samples;Min_cycle;Max_cycle;Signal;HPM_P1;HPM_P2
2023/08/05 00:00:49;;;;;;;4.57;2.80;;;13.70;99.90;;;;;;4982726;28;20236;-71
2023/08/05 00:03:17;;;;;;;7.23;3.37;;;13.70;99.90;;;;;;4984176;28;20268;-72
2023/08/05 00:05:44;;;;;;;3.90;3.03;;;13.80;99.90;;;;;;4983915;28;20216;-71
2023/08/05 00:08:11;;;;;;;9.97;2.77;;;13.90;99.90;;;;;;4988080;28;20648;-71
2023/08/05 00:10:42;;;;;;;3.43;2.27;;;13.90;99.90;;;;;;5000605;28;20199;-71
2023/08/05 00:13:10;;;;;;;4.83;2.73;;;13.90;99.90;;;;;;4997114;28;20264;-71
2023/08/05 00:15:37;;;;;;;4.50;2.40;;;13.90;99.90;;;;;;5000977;28;20208;-71
2023/08/05 00:18:04;;;;;;;5.63;2.63;;;13.90;99.90;;;;;;4982085;28;20209;-72
2023/08/05 00:20:30;;;;;;;6.77;2.73;;;13.90;99.90;;;;;;4977722;28;20525;-71
2023/08/05 00:22:57;;;;;;;4.33;2.27;;;13.90;99.90;;;;;;4999082;28;20201;-71
2023/08/05 00:25:24;;;;;;;4.43;2.40;;;13.80;99.90;;;;;;4996697;28;20274;-71
2023/08/05 00:27:51;;;;;;;3.33;2.47;;;13.80;99.90;;;;;;4989425;28;20677;-71
2023/08/05 00:30:19;;;;;;;4.27;2.50;;;13.70;99.90;;;;;;4997914;28;20264;-72
2023/08/05 00:32:46;;;;;;;7.07;3.07;;;13.70;99.90;;;;;;4968268;28;20218;-72
2023/08/05 00:35:13;;;;;;;7.37;2.67;;;13.60;99.90;;;;;;4976583;28;20274;-72
2023/08/05 00:37:40;;;;;;;5.37;2.30;;;13.60;99.90;;;;;;4991549;28;20205;-71
2023/08/05 00:40:09;;;;;;;4.77;2.40;;;13.50;99.90;;;;;;4997681;28;20197;-71
2023/08/05 00:42:36;;;;;;;6.37;2.80;;;13.50;99.90;;;;;;4998420;28;20209;-71
2023/08/05 00:45:03;;;;;;;5.13;2.40;;;13.60;99.90;;;;;;4992658;28;20228;-71
2023/08/05 00:47:32;;;;;;;4.17;2.67;;;13.50;99.90;;;;;;4980675;28;20778;-71
2023/08/05 00:49:59;;;;;;;4.93;2.60;;;13.50;99.90;;;;;;5004398;28;20200;-73
2023/08/05 00:52:27;;;;;;;4.37;2.57;;;13.40;99.90;;;;;;4998687;28;20204;-72
2023/08/05 00:54:54;;;;;;;6.93;3.40;;;13.50;99.90;;;;;;4988287;28;20224;-71
2023/08/05 00:57:21;;;;;;;6.03;3.40;;;13.50;99.90;;;;;;4994802;28;20200;-71
2023/08/05 00:59:48;;;;;;;4.90;2.73;;;13.50;99.90;;;;;;4991542;28;20933;-71
2023/08/05 01:02:15;;;;;;;4.37;2.63;;;13.50;99.90;;;;;;5005933;28;20263;-72
2023/08/05 01:04:43;;;;;;;5.20;2.60;;;13.50;99.90;;;;;;4985916;28;20306;-72
2023/08/05 01:07:11;;;;;;;7.13;3.17;;;13.60;99.90;;;;;;4986486;28;20284;-71
2023/08/05 01:09:38;;;;;;;3.20;2.90;;;13.60;99.90;;;;;;4992316;28;20902;-72
2023/08/05 01:12:06;;;;;;;7.13;3.20;;;13.60;99.90;;;;;;5007147;28;20212;-71
2023/08/05 01:14:33;;;;;;;7.23;3.97;;;13.60;99.90;;;;;;5002593;28;20262;-72
2023/08/05 01:17:01;;;;;;;14.20;3.40;;;13.70;99.90;;;;;;5001948;28;20271;-71
2023/08/05 01:19:30;;;;;;;6.43;3.47;;;13.80;99.90;;;;;;4979718;28;20790;-72
2023/08/05 01:22:10;;;;;;;2.93;2.67;;;13.80;99.90;;;;;;4992577;28;20205;-71
2023/08/05 01:24:43;;;;;;;5.53;3.03;;;13.80;99.90;;;;;;5002918;28;20226;-71
2023/08/05 01:27:12;;;;;;;4.97;3.23;;;13.80;99.90;;;;;;4983117;28;20216;-71
2023/08/05 01:29:39;;;;;;;4.17;2.93;;;13.80;99.90;;;;;;4990832;28;20898;-72
2023/08/05 01:32:07;;;;;;;6.90;3.27;;;13.80;99.90;;;;;;4994484;28;20551;-71
2023/08/05 01:34:34;;;;;;;4.50;3.43;;;13.80;99.90;;;;;;4964087;28;20224;-71
2023/08/05 01:37:01;;;;;;;4.07;2.70;;;13.80;99.90;;;;;;5000342;28;20193;-71
2023/08/05 01:39:28;;;;;;;3.67;2.80;;;13.90;99.90;;;;;;4984285;28;20188;-72
2023/08/05 01:41:55;;;;;;;5.17;2.93;;;13.90;99.90;;;;;;4989532;28;20201;-72
2023/08/05 01:44:23;;;;;;;6.53;3.57;;;14.00;99.90;;;;;;4990404;28;20291;-71
2023/08/05 01:46:50;;;;;;;6.30;2.97;;;14.00;99.90;;;;;;5000692;28;20628;-71
2023/08/05 01:49:17;;;;;;;5.37;3.23;;;14.00;99.90;;;;;;4971692;28;20223;-71
2023/08/05 01:51:44;;;;;;;6.73;3.00;;;14.00;99.90;;;;;;4992775;28;20375;-72
2023/08/05 01:54:11;;;;;;;5.40;2.83;;;14.00;99.90;;;;;;5003149;28;20204;-71
2023/08/05 01:56:37;;;;;;;4.80;2.97;;;14.10;99.90;;;;;;4984239;28;20608;-71
2023/08/05 01:59:04;;;;;;;6.77;3.20;;;14.10;99.90;;;;;;4984460;28;20889;-71
2023/08/05 02:01:43;;;;;;;6.30;3.70;;;14.10;99.90;;;;;;4990517;28;20630;-72
2023/08/05 02:04:10;;;;;;;4.17;3.27;;;14.20;99.90;;;;;;4987721;28;20216;-71
2023/08/05 02:06:37;;;;;;;3.57;2.90;;;14.10;99.90;;;;;;4982418;28;20256;-71
2023/08/05 02:09:04;;;;;;;6.00;3.27;;;14.20;99.90;;;;;;4982190;28;20270;-71
2023/08/05 02:11:31;;;;;;;5.27;3.30;;;14.20;99.90;;;;;;5002819;28;20192;-71
2023/08/05 02:13:58;;;;;;;5.27;3.30;;;14.20;99.90;;;;;;4988360;28;20214;-71
2023/08/05 02:16:25;;;;;;;5.50;3.20;;;14.20;99.90;;;;;;5005333;28;20276;-71
2023/08/05 02:18:54;;;;;;;5.13;2.87;;;14.20;99.90;;;;;;4984454;28;20181;-71
2023/08/05 02:21:22;;;;;;;5.13;3.57;;;14.20;99.90;;;;;;4969971;28;20205;-71
2023/08/05 02:23:49;;;;;;;7.17;3.00;;;14.30;99.90;;;;;;4996722;28;20383;-71
2023/08/05 02:26:16;;;;;;;8.37;2.70;;;14.30;99.90;;;;;;5004291;28;20227;-71
2023/08/05 02:28:43;;;;;;;5.33;2.83;;;14.30;99.90;;;;;;4983106;28;20209;-72
2023/08/05 02:31:12;;;;;;;7.07;3.23;;;14.40;99.90;;;;;;4981225;28;20224;-71
2023/08/05 02:33:39;;;;;;;4.33;3.27;;;14.40;99.90;;;;;;5002984;28;20212;-72
2023/08/05 02:36:07;;;;;;;4.83;2.70;;;14.40;99.90;;;;;;4987531;28;20935;-71
2023/08/05 02:38:34;;;;;;;7.30;2.93;;;14.40;99.90;;;;;;4986033;28;20216;-71
2023/08/05 02:41:01;;;;;;;5.37;2.80;;;14.40;99.90;;;;;;4984598;28;20309;-71
2023/08/05 02:43:28;;;;;;;8.80;3.87;;;14.40;99.90;;;;;;4997411;28;20239;-71
2023/08/05 02:45:55;;;;;;;5.90;2.83;;;14.40;99.90;;;;;;4973051;28;20996;-71
2023/08/05 02:48:23;;;;;;;4.87;2.83;;;14.40;99.90;;;;;;4984729;28;20193;-71
2023/08/05 02:50:50;;;;;;;6.40;2.93;;;14.40;99.90;;;;;;4995063;28;20298;-71
2023/08/05 02:53:19;;;;;;;6.47;2.50;;;14.50;99.90;;;;;;4984941;28;20810;-71
2023/08/05 02:55:46;;;;;;;5.23;3.20;;;14.50;99.90;;;;;;4973829;28;20265;-72
2023/08/05 02:58:15;;;;;;;5.57;3.07;;;14.40;99.90;;;;;;4986737;28;20215;-71
2023/08/05 03:00:43;;;;;;;5.60;2.70;;;14.50;99.90;;;;;;5001584;28;20672;-71
2023/08/05 03:03:11;;;;;;;6.50;2.67;;;14.40;99.90;;;;;;4995637;28;20208;-71
2023/08/05 03:05:38;;;;;;;7.67;2.47;;;14.40;99.90;;;;;;4991179;28;20225;-72
2023/08/05 03:08:06;;;;;;;5.43;2.73;;;14.40;99.90;;;;;;4988603;28;20209;-71
2023/08/05 03:10:35;;;;;;;7.20;2.60;;;14.40;99.90;;;;;;4966586;28;20197;-71
2023/08/05 03:13:02;;;;;;;5.63;2.30;;;14.30;99.90;;;;;;4992974;28;20419;-71
2023/08/05 03:15:29;;;;;;;3.17;2.87;;;14.20;99.90;;;;;;4996329;28;20228;-71
2023/08/05 03:17:58;;;;;;;3.87;2.73;;;14.10;99.90;;;;;;4989562;28;20233;-71
2023/08/05 03:20:27;;;;;;;5.10;2.33;;;14.10;99.90;;;;;;4987493;28;20207;-71
2023/08/05 03:22:59;;;;;;;5.50;2.90;;;14.10;99.90;;;;;;5001656;28;20472;-71
2023/08/05 03:25:27;;;;;;;5.70;2.93;;;14.00;99.90;;;;;;4993071;28;20693;-71
2023/08/05 03:28:00;;;;;;;4.67;2.77;;;14.00;99.90;;;;;;4979263;28;20429;-71
2023/08/05 03:30:29;;;;;;;2.90;2.70;;;13.90;99.90;;;;;;4980979;28;20227;-72
2023/08/05 03:32:57;;;;;;;2.93;2.63;;;13.90;99.90;;;;;;4984673;28;20185;-71
2023/08/05 03:35:26;;;;;;;3.10;2.70;;;13.90;99.90;;;;;;4987185;28;20279;-71
2023/08/05 03:37:54;;;;;;;8.67;3.40;;;13.90;99.90;;;;;;4984775;28;20331;-71
2023/08/05 03:40:21;;;;;;;7.43;2.90;;;13.90;99.90;;;;;;4967769;28;20287;-71
2023/08/05 03:42:49;;;;;;;5.43;2.70;;;13.90;99.90;;;;;;4972201;28;20651;-71
2023/08/05 03:45:17;;;;;;;5.13;2.80;;;13.90;99.90;;;;;;5001294;28;20216;-72
2023/08/05 03:47:44;;;;;;;5.43;3.10;;;14.00;99.90;;;;;;4986195;28;20224;-71
2023/08/05 03:50:11;;;;;;;3.10;2.80;;;14.00;99.90;;;;;;4983943;28;20285;-71
2023/08/05 03:52:40;;;;;;;10.63;3.20;;;14.00;99.90;;;;;;4983679;28;20849;-71
2023/08/05 03:55:07;;;;;;;4.33;2.47;;;14.10;99.90;;;;;;4965094;28;20729;-71
2023/08/05 03:57:35;;;;;;;5.03;3.10;;;14.10;99.90;;;;;;4994524;28;20953;-71
2023/08/05 04:00:02;;;;;;;5.63;3.80;;;14.10;99.90;;;;;;5003333;28;20193;-71
2023/08/05 04:02:41;;;;;;;6.20;2.77;;;14.20;99.90;;;;;;4989499;28;20251;-71
2023/08/05 04:05:09;;;;;;;4.60;2.57;;;14.20;99.90;;;;;;4984662;28;20768;-71
2023/08/05 04:07:37;;;;;;;5.90;2.97;;;14.30;99.90;;;;;;4997921;28;20267;-71
2023/08/05 04:10:06;;;;;;;4.13;2.53;;;14.30;99.90;;;;;;4996346;28;20677;-72
2023/08/05 04:12:33;;;;;;;5.53;2.90;;;14.40;99.90;;;;;;4977748;28;20320;-71
2023/08/05 04:15:02;;;;;;;5.47;2.50;;;14.40;99.90;;;;;;4982654;28;20236;-71
2023/08/05 04:17:31;;;;;;;7.00;3.03;;;14.40;99.90;;;;;;4984777;28;20196;-71
2023/08/05 04:20:00;;;;;;;6.67;2.33;;;14.40;99.90;;;;;;4980113;28;20211;-71
2023/08/05 04:22:27;;;;;;;9.20;3.20;;;14.40;99.90;;;;;;4980971;28;20461;-71
2023/08/05 04:24:54;;;;;;;3.90;3.13;;;14.40;99.90;;;;;;4995787;28;20220;-71
2023/08/05 04:27:21;;;;;;;3.13;2.53;;;14.40;99.90;;;;;;4983548;28;20754;-72
2023/08/05 04:29:49;;;;;;;6.40;3.00;;;14.50;99.90;;;;;;4999648;28;20201;-71
2023/08/05 04:32:16;;;;;;;4.50;2.90;;;14.50;99.90;;;;;;4995212;28;20193;-71
2023/08/05 04:34:43;;;;;;;5.60;2.50;;;14.50;99.90;;;;;;4996025;28;20232;-71
2023/08/05 04:37:18;;;;;;;6.83;2.70;;;14.60;99.90;;;;;;4998570;28;20616;-71
2023/08/05 04:39:46;;;;;;;4.30;2.53;;;14.60;99.90;;;;;;4998629;28;20669;-70
2023/08/05 04:42:13;;;;;;;4.10;2.37;;;14.60;99.90;;;;;;4977165;28;20208;-71
2023/08/05 04:44:41;;;;;;;6.93;2.80;;;14.70;99.90;;;;;;4985820;28;20209;-69
2023/08/05 04:47:08;;;;;;;6.30;3.10;;;14.70;99.90;;;;;;4996757;28;20290;-70
2023/08/05 04:49:35;;;;;;;6.23;2.60;;;14.60;99.90;;;;;;4999409;28;20205;-71
2023/08/05 04:52:05;;;;;;;4.93;2.80;;;14.50;99.90;;;;;;4994460;28;20287;-70
2023/08/05 04:54:36;;;;;;;9.13;3.00;;;14.50;99.90;;;;;;4976390;28;20220;-71
2023/08/05 04:57:04;;;;;;;8.30;2.87;;;14.60;99.90;;;;;;4999767;28;20216;-70
2023/08/05 04:59:31;;;;;;;7.17;2.47;;;14.60;99.90;;;;;;5003678;28;20664;-71
2023/08/05 05:01:58;;;;;;;5.27;3.10;;;14.60;99.90;;;;;;4991623;28;20215;-70
2023/08/05 05:04:24;;;;;;;5.80;2.63;;;14.60;99.90;;;;;;4999419;28;20617;-71
2023/08/05 05:06:51;;;;;;;6.30;2.50;;;14.60;99.90;;;;;;4991131;28;20221;-70
2023/08/05 05:09:18;;;;;;;4.20;2.53;;;14.70;99.90;;;;;;4992936;28;20204;-72
2023/08/05 05:11:46;;;;;;;5.23;2.50;;;14.70;99.90;;;;;;4991055;28;20431;-70
2023/08/05 05:14:13;;;;;;;3.87;2.53;;;14.70;99.90;;;;;;4966402;28;20209;-71
2023/08/05 05:16:40;;;;;;;3.93;2.53;;;14.70;99.90;;;;;;4996161;28;20290;-71
2023/08/05 05:19:07;;;;;;;2.73;2.50;;;14.70;99.90;;;;;;4996377;28;20267;-71
2023/08/05 05:21:34;;;;;;;5.67;3.27;;;14.70;99.90;;;;;;4993562;28;20578;-70
2023/08/05 05:24:01;;;;;;;4.60;2.40;;;14.80;99.90;;;;;;4993677;28;20213;-70
2023/08/05 05:26:28;;;;;;;7.60;3.30;;;14.80;99.90;;;;;;4997999;28;20228;-70
2023/08/05 05:28:56;;;;;;;6.47;3.67;;;14.90;99.90;;;;;;4979305;28;20208;-71
2023/08/05 05:31:23;;;;;;;4.90;2.77;;;15.00;99.90;;;;;;4990964;28;20208;-70
2023/08/05 05:33:51;;;;;;;5.77;2.53;;;15.10;99.90;;;;;;5000828;28;20256;-70
2023/08/05 05:36:18;;;;;;;3.23;2.63;;;15.10;99.90;;;;;;4991073;28;20236;-71
2023/08/05 05:38:44;;;;;;;6.30;2.67;;;15.20;99.90;;;;;;5000636;28;20202;-69
2023/08/05 05:41:11;;;;;;;4.17;2.40;;;15.30;99.90;;;;;;4993487;28;20302;-71
2023/08/05 05:43:39;;;;;;;3.20;2.60;;;15.30;99.90;;;;;;4988398;28;20865;-69
2023/08/05 05:46:07;;;;;;;4.43;2.40;;;15.40;99.90;;;;;;4984315;28;20712;-69
2023/08/05 05:48:34;;;;;;;8.50;2.30;;;15.50;99.90;;;;;;4974505;28;20557;-70
2023/08/05 05:51:01;;;;;;;3.63;2.60;;;15.50;99.90;;;;;;5005279;28;20204;-69
2023/08/05 05:53:28;;;;;;;4.07;2.10;;;15.70;99.90;;;;;;4989361;28;20200;-70
2023/08/05 05:55:54;;;;;;;3.23;2.70;;;15.70;99.90;;;;;;4988869;28;20276;-70
2023/08/05 05:58:21;;;;;;;3.20;2.03;;;15.80;99.90;;;;;;4997177;28;20197;-71
2023/08/05 06:00:48;;;;;;;2.40;2.20;;;15.90;99.90;;;;;;4983377;28;20200;-70
2023/08/05 06:03:16;;;;;;;4.30;2.70;;;15.90;99.90;;;;;;5000308;28;20227;-72
2023/08/05 06:05:43;;;;;;;6.13;2.70;;;16.00;99.90;;;;;;4991792;28;20213;-70
2023/08/05 06:08:10;;;;;;;6.80;2.60;;;16.10;99.90;;;;;;4997846;28;20306;-72
2023/08/05 06:10:38;;;;;;;4.20;2.37;;;16.10;99.90;;;;;;5002717;28;20957;-70
2023/08/05 06:13:05;;;;;;;5.13;2.30;;;16.10;99.90;;;;;;5005822;28;20211;-70
2023/08/05 06:15:32;;;;;;;6.23;2.37;;;16.20;99.90;;;;;;4984689;28;20224;-70
2023/08/05 06:17:58;;;;;;;2.50;2.30;;;16.20;99.90;;;;;;4994022;28;20197;-70
2023/08/05 06:20:27;;;;;;;3.80;2.37;;;16.20;99.90;;;;;;5001203;28;20200;-71
2023/08/05 06:22:53;;;;;;;4.53;2.00;;;16.30;99.90;;;;;;5000230;28;20311;-70
2023/08/05 06:25:20;;;;;;;4.20;2.73;;;16.30;99.90;;;;;;4981998;28;20646;-71
2023/08/05 06:27:47;;;;;;;5.60;2.50;;;16.30;99.90;;;;;;4999977;28;20217;-70
2023/08/05 06:30:14;;;;;;;3.03;2.73;;;16.30;99.90;;;;;;4994086;28;20227;-71
2023/08/05 06:32:41;;;;;;;5.40;2.60;;;16.30;99.90;;;;;;4977239;28;20217;-69
2023/08/05 06:35:08;;;;;;;4.87;2.67;;;16.30;99.90;;;;;;4983868;28;20283;-71
2023/08/05 06:37:37;;;;;;;3.77;2.33;;;16.40;99.90;;;;;;4992205;28;20236;-69
2023/08/05 06:40:04;;;;;;;7.37;2.83;;;16.30;99.90;;;;;;4987274;28;20196;-70
2023/08/05 06:42:31;;;;;;;4.13;2.40;;;16.30;99.90;;;;;;4981202;28;20213;-70
2023/08/05 06:44:57;;;;;;;6.73;2.90;;;16.30;99.90;;;;;;4998507;28;20216;-70
2023/08/05 06:47:30;;;;;;;4.37;2.50;;;16.20;99.90;;;;;;4986013;28;20279;-70
2023/08/05 06:49:57;;;;;;;5.43;2.37;;;16.20;99.90;;;;;;4989087;28;20192;-69
2023/08/05 06:52:24;;;;;;;4.97;2.73;;;16.30;99.90;;;;;;4994219;28;20196;-70
2023/08/05 06:54:52;;;;;;;2.47;2.27;;;16.30;99.90;;;;;;4992452;28;20225;-70
2023/08/05 06:57:19;;;;;;;4.80;3.20;;;16.40;99.90;;;;;;5001394;28;20199;-70
2023/08/05 06:59:47;;;;;;;6.40;2.50;;;16.40;99.90;;;;;;5002777;28;20209;-69
2023/08/05 07:02:14;;;;;;;4.20;2.77;;;16.50;99.90;;;;;;4994735;28;20220;-70
2023/08/05 07:04:41;;;;;;;8.90;2.80;;;16.50;99.90;;;;;;4984289;28;21045;-70
2023/08/05 07:07:08;;;;;;;7.20;3.00;;;16.50;99.90;;;;;;4991632;28;20219;-71
2023/08/05 07:09:35;;;;;;;4.17;2.50;;;16.60;99.90;;;;;;4979668;28;20532;-69
2023/08/05 07:12:04;;;;;;;4.70;2.77;;;16.60;99.90;;;;;;5002231;28;20206;-69
2023/08/05 07:14:32;;;;;;;4.20;2.47;;;16.70;99.90;;;;;;4997941;28;21000;-69
2023/08/05 07:16:59;;;;;;;3.67;2.23;;;16.70;99.90;;;;;;4983809;28;20196;-70
2023/08/05 07:19:26;;;;;;;2.80;1.77;;;16.80;99.90;;;;;;4979064;28;20196;-71
2023/08/05 07:21:53;;;;;;;5.47;2.20;;;16.80;99.90;;;;;;4997952;28;20672;-70
2023/08/05 07:24:19;;;;;;;3.53;2.00;;;16.90;99.90;;;;;;5000126;28;20282;-71
2023/08/05 07:26:46;;;;;;;4.23;2.37;;;16.90;99.90;;;;;;4997098;28;20211;-69
2023/08/05 07:29:15;;;;;;;5.00;2.27;;;17.00;99.90;;;;;;4995578;28;20280;-70
2023/08/05 07:31:41;;;;;;;4.20;2.20;;;17.00;99.90;;;;;;5000953;28;20187;-69
2023/08/05 07:34:09;;;;;;;5.33;2.60;;;17.10;99.90;;;;;;4986465;28;20205;-69
2023/08/05 07:36:36;;;;;;;4.17;1.80;;;17.20;99.90;;;;;;4997749;28;20192;-70
2023/08/05 07:39:06;;;;;;;3.97;2.10;;;17.20;99.90;;;;;;5004065;28;20193;-69
2023/08/05 07:41:37;;;;;;;3.30;2.00;;;17.30;99.90;;;;;;4972565;28;20252;-69
2023/08/05 07:44:04;;;;;;;3.20;2.40;;;17.30;99.90;;;;;;4994064;28;20251;-69
2023/08/05 07:46:35;;;;;;;4.83;1.70;;;17.40;99.90;;;;;;5003968;28;20212;-69
2023/08/05 07:49:03;;;;;;;6.17;1.80;;;17.50;99.90;;;;;;4966202;28;20248;-69
2023/08/05 07:51:31;;;;;;;3.73;2.07;;;17.50;99.90;;;;;;4999532;28;20478;-70
2023/08/05 07:53:58;;;;;;;3.60;2.40;;;17.60;99.90;;;;;;4993145;28;20204;-69
2023/08/05 07:56:25;;;;;;;5.10;2.23;;;17.60;99.90;;;;;;4985798;28;20280;-71
2023/08/05 07:58:53;;;;;;;5.70;2.30;;;17.70;99.90;;;;;;5002774;28;20212;-69
2023/08/05 08:01:22;;;;;;;3.80;2.30;;;17.80;99.90;;;;;;4996093;28;20674;-71
2023/08/05 08:03:53;;;;;;;5.87;2.40;;;17.90;99.90;;;;;;4998243;28;20219;-70
2023/08/05 08:06:20;;;;;;;8.17;2.60;;;18.00;99.90;;;;;;4977424;28;20318;-71
2023/08/05 08:08:48;;;;;;;2.30;2.10;;;18.10;99.90;;;;;;4993474;28;20255;-69
2023/08/05 08:11:15;;;;;;;3.27;2.33;;;18.20;99.90;;;;;;4997516;28;20193;-70
2023/08/05 08:13:42;;;;;;;10.07;2.87;;;18.30;99.90;;;;;;4999683;28;20211;-69
2023/08/05 08:16:09;;;;;;;4.80;1.83;;;18.40;99.90;;;;;;4990698;28;20217;-71
2023/08/05 08:18:36;;;;;;;5.03;1.87;;;18.50;99.90;;;;;;4997198;28;20749;-69
2023/08/05 08:21:07;;;;;;;6.10;2.63;;;18.50;99.90;;;;;;4986201;28;20603;-70
2023/08/05 08:23:34;;;;;;;3.63;2.20;;;18.50;99.90;;;;;;4978476;28;20883;-69
2023/08/05 08:26:01;;;;;;;2.63;1.60;;;18.50;99.90;;;;;;4998345;28;20235;-70
2023/08/05 08:28:28;;;;;;;4.70;1.87;;;18.50;99.90;;;;;;4983391;28;20228;-69
2023/08/05 08:30:56;;;;;;;4.23;1.97;;;18.50;99.90;;;;;;4996021;28;20201;-69
2023/08/05 08:33:24;;;;;;;3.87;1.70;;;18.60;99.90;;;;;;4995441;28;20660;-71
2023/08/05 08:35:51;;;;;;;4.63;1.40;;;18.50;99.90;;;;;;4983070;28;20216;-69
2023/08/05 08:38:19;;;;;;;2.10;1.40;;;18.50;99.90;;;;;;5001763;28;20189;-71
2023/08/05 08:40:49;;;;;;;1.80;1.70;;;18.50;99.90;;;;;;4986939;28;21233;-70
2023/08/05 08:43:19;;;;;;;1.73;1.57;;;18.50;99.90;;;;;;4988588;28;20196;-71
2023/08/05 08:45:48;;;;;;;5.67;1.80;;;18.50;99.90;;;;;;4985397;28;20888;-70
2023/08/05 08:48:15;;;;;;;2.37;1.67;;;18.50;99.90;;;;;;5000064;28;20684;-71
2023/08/05 08:50:43;;;;;;;6.23;2.30;;;18.50;99.90;;;;;;4996654;28;20275;-69
2023/08/05 08:53:11;;;;;;;1.93;1.53;;;18.40;99.90;;;;;;4963299;28;20213;-70
2023/08/05 08:55:41;;;;;;;2.70;1.60;;;18.40;99.90;;;;;;4982015;28;20224;-70
2023/08/05 08:58:08;;;;;;;4.23;1.40;;;18.40;99.90;;;;;;5001559;28;20201;-69
2023/08/05 09:00:36;;;;;;;4.03;1.50;;;18.40;99.90;;;;;;4994751;28;20207;-69
2023/08/05 09:03:04;;;;;;;3.80;1.70;;;18.50;99.90;;;;;;5006538;28;20223;-70
2023/08/05 09:05:35;;;;;;;2.63;1.50;;;18.50;99.90;;;;;;4996509;28;20213;-69
2023/08/05 09:08:04;;;;;;;2.03;1.70;;;18.40;99.90;;;;;;4987835;28;20217;-71
2023/08/05 09:10:31;;;;;;;2.50;1.60;;;18.40;99.90;;;;;;5001124;28;20200;-69
2023/08/05 09:13:00;;;;;;;2.23;1.70;;;18.40;99.90;;;;;;5006730;28;20201;-69
2023/08/05 09:15:33;;;;;;;2.30;1.60;;;18.40;99.90;;;;;;5001408;28;20267;-71
2023/08/05 09:17:59;;;;;;;4.10;1.77;;;18.50;99.90;;;;;;5002381;28;20716;-69
2023/08/05 09:20:27;;;;;;;2.83;2.10;;;18.40;99.90;;;;;;4997495;28;20205;-71
2023/08/05 09:22:55;;;;;;;3.97;2.07;;;18.40;99.90;;;;;;4989453;28;20703;-69
2023/08/05 09:25:23;;;;;;;2.53;1.77;;;18.40;99.90;;;;;;5003615;28;20256;-71
2023/08/05 09:27:52;;;;;;;3.07;1.50;;;18.50;99.90;;;;;;4977624;28;20272;-70
2023/08/05 09:30:21;;;;;;;3.43;1.70;;;18.60;99.90;;;;;;4994224;28;21034;-70
2023/08/05 09:32:50;;;;;;;3.47;1.63;;;18.60;99.90;;;;;;5006213;28;20224;-69
2023/08/05 09:35:17;;;;;;;6.83;2.10;;;18.70;99.90;;;;;;4994406;28;20228;-71
2023/08/05 09:37:48;;;;;;;4.13;1.87;;;18.80;99.90;;;;;;4990941;28;20986;-69
2023/08/05 09:40:17;;;;;;;2.50;1.80;;;18.80;99.90;;;;;;4990168;28;20193;-71
2023/08/05 09:42:48;;;;;;;2.00;1.60;;;19.00;99.90;;;;;;5000074;28;20204;-70
2023/08/05 09:45:16;;;;;;;2.17;1.70;;;19.00;99.90;;;;;;4999130;28;20239;-71
2023/08/05 09:47:47;;;;;;;2.60;1.50;;;19.20;99.90;;;;;;4978103;28;20355;-70
2023/08/05 09:50:15;;;;;;;3.77;1.63;;;19.30;99.90;;;;;;5011830;28;20196;-72
2023/08/05 09:52:43;;;;;;;2.23;1.63;;;19.50;99.90;;;;;;4993102;28;20350;-70
2023/08/05 09:55:14;;;;;;;4.07;1.60;;;19.60;99.90;;;;;;4986741;28;20228;-71
2023/08/05 09:57:42;;;;;;;3.87;1.60;;;19.80;99.90;;;;;;4990359;28;20201;-71
2023/08/05 10:00:11;;;;;;;2.47;1.40;;;20.00;99.90;;;;;;5003800;28;20375;-71
2023/08/05 10:02:41;;;;;;;2.20;1.30;;;20.10;99.90;;;;;;4997909;28;20275;-69
2023/08/05 10:05:10;;;;;;;1.87;1.70;;;20.10;99.90;;;;;;4998638;28;20300;-70
2023/08/05 10:07:39;;;;;;;3.00;1.13;;;20.20;99.90;;;;;;5002150;28;20200;-68
2023/08/05 10:10:09;;;;;;;1.50;1.23;;;20.30;99.90;;;;;;4988334;28;20684;-68
2023/08/05 10:12:41;;;;;;;1.88;1.27;;;20.40;99.90;;;;;;4984291;28;20200;-69
2023/08/05 10:15:11;;;;;;;2.63;1.55;;;20.50;99.90;;;;;;5003130;28;20223;-70
2023/08/05 10:17:39;;;;;;;2.67;1.30;;;20.60;99.90;;;;;;4985858;28;20259;-68
2023/08/05 10:20:12;;;;;;;4.03;1.83;;;20.60;99.90;;;;;;5005356;28;20275;-68
2023/08/05 10:22:39;;;;;;;2.97;1.50;;;20.60;99.90;;;;;;4990062;28;20203;-69
2023/08/05 10:25:06;;;;;;;1.70;1.27;;;20.60;99.90;;;;;;4987659;28;20295;-70
2023/08/05 10:27:35;;;;;;;2.77;1.80;;;20.50;99.90;;;;;;4985922;28;20818;-69
2023/08/05 10:30:12;;;;;;;3.03;2.00;;;20.40;99.90;;;;;;4989858;28;20221;-69
2023/08/05 10:32:52;;;;;;;2.77;1.50;;;20.20;99.90;;;;;;4994834;28;20274;-68
2023/08/05 10:35:28;;;;;;;1.58;1.48;;;20.20;99.90;;;;;;5001428;28;20228;-71
2023/08/05 10:38:16;;;;;;;2.30;1.60;;;20.20;99.90;;;;;;5002411;28;20204;-69
2023/08/05 10:40:46;;;;;;;4.47;1.50;;;20.20;99.90;;;;;;4977001;28;21665;-69
2023/08/05 10:43:27;;;;;;;1.40;1.30;;;20.10;99.90;;;;;;5000697;28;20571;-70
2023/08/05 10:45:54;;;;;;;1.77;1.63;;;20.20;99.90;;;;;;4995515;28;20216;-69
2023/08/05 10:48:27;;;;;;;3.40;2.17;;;20.10;99.90;;;;;;5001149;28;20209;-70
2023/08/05 10:50:56;;;;;;;2.50;1.52;;;20.00;99.90;;;;;;4996189;28;20197;-69
2023/08/05 10:53:23;;;;;;;3.20;1.70;;;20.00;99.90;;;;;;4977552;28;20228;-70
2023/08/05 10:55:51;;;;;;;3.13;1.60;;;20.00;99.90;;;;;;4988262;28;20228;-69
2023/08/05 10:58:22;;;;;;;2.28;1.88;;;20.00;99.90;;;;;;4979043;28;20588;-70
2023/08/05 11:00:57;;;;;;;2.95;1.75;;;19.90;99.90;;;;;;4984857;28;20604;-69
2023/08/05 11:03:40;;;;;;;2.70;1.80;;;20.00;99.90;;;;;;4980978;28;20287;-70
2023/08/05 11:06:09;;;;;;;3.00;1.85;;;20.00;99.90;;;;;;4998997;28;20468;-70
2023/08/05 11:08:37;;;;;;;2.67;2.00;;;20.00;99.90;;;;;;4985942;28;20348;-70
2023/08/05 11:11:06;;;;;;;3.50;1.88;;;20.00;99.90;;;;;;4999650;28;20278;-70
2023/08/05 11:13:37;;;;;;;2.00;1.75;;;20.00;99.90;;;;;;4977692;28;20977;-69
2023/08/05 11:16:09;;;;;;;5.27;2.07;;;20.10;99.90;;;;;;4993800;28;20708;-70
2023/08/05 11:18:36;;;;;;;2.78;1.80;;;20.10;99.90;;;;;;4996601;28;20274;-69
2023/08/05 11:21:05;;;;;;;2.22;1.42;;;20.20;99.90;;;;;;5000726;28;20204;-70
2023/08/05 11:23:34;;;;;;;4.30;1.60;;;20.30;99.90;;;;;;4995774;28;20204;-70
2023/08/05 11:26:01;;;;;;;2.72;1.70;;;20.40;99.90;;;;;;5000066;28;20216;-70
2023/08/05 11:28:29;;;;;;;3.55;1.70;;;20.60;99.90;;;;;;4971502;28;20225;-70
2023/08/05 11:30:56;;;;;;;2.03;1.65;;;20.80;99.90;;;;;;4980232;28;20304;-70
2023/08/05 11:33:23;;;;;;;2.15;1.50;;;21.20;99.90;;;;;;4980062;28;20212;-72
2023/08/05 11:35:53;;;;;;;1.73;1.63;;;21.40;99.90;;;;;;5001064;28;20684;-69
2023/08/05 11:38:21;;;;;;;2.83;1.90;;;21.40;99.90;;;;;;4988783;28;20196;-71
2023/08/05 11:40:52;;;;;;;1.75;1.65;;;21.50;99.90;;;;;;4995776;28;20209;-70
2023/08/05 11:43:20;;;;;;;1.50;1.40;;;21.70;99.90;;;;;;4973269;28;20213;-72
2023/08/05 11:45:48;;;;;;;1.45;1.33;;;21.80;99.90;;;;;;4998413;28;20228;-69
2023/08/05 11:48:22;;;;;;;2.17;2.00;;;21.90;99.90;;;;;;4991569;28;20279;-72
2023/08/05 11:50:50;;;;;;;1.40;1.27;;;21.90;99.90;;;;;;4994979;28;20207;-71
2023/08/05 11:53:18;;;;;;;2.25;1.48;;;21.90;99.90;;;;;;4977031;28;20201;-71
2023/08/05 11:55:46;;;;;;;3.35;1.65;;;21.80;99.90;;;;;;4991907;28;20287;-70
2023/08/05 11:58:14;;;;;;;3.08;1.35;;;21.60;99.90;;;;;;4973252;28;20811;-71
2023/08/05 12:00:46;;;;;;;1.75;1.40;;;21.40;99.90;;;;;;4988717;28;20266;-70
2023/08/05 12:03:14;;;;;;;1.95;1.80;;;21.40;99.90;;;;;;4993884;28;20452;-71
2023/08/05 12:05:42;;;;;;;1.85;1.50;;;21.30;99.90;;;;;;4998914;28;20212;-71
2023/08/05 12:08:10;;;;;;;1.30;1.20;;;21.30;99.90;;;;;;4997727;28;20201;-71
2023/08/05 12:10:37;;;;;;;2.92;1.35;;;21.20;99.90;;;;;;4985703;28;20191;-70
2023/08/05 12:13:06;;;;;;;1.85;1.48;;;21.20;99.90;;;;;;4998968;28;20645;-70
2023/08/05 12:15:35;;;;;;;1.98;1.50;;;21.20;99.90;;;;;;4988582;28;20205;-71
2023/08/05 12:18:04;;;;;;;2.13;1.52;;;21.20;99.90;;;;;;4998023;28;20551;-70
2023/08/05 12:20:32;;;;;;;1.60;1.10;;;21.30;99.90;;;;;;4992342;28;20189;-70
2023/08/05 12:22:59;;;;;;;1.33;1.10;;;21.30;99.90;;;;;;4994394;28;20232;-70
2023/08/05 12:25:27;;;;;;;1.58;1.10;;;21.30;99.90;;;;;;4994001;28;20232;-70
2023/08/05 12:27:54;;;;;;;1.30;1.20;;;21.40;99.90;;;;;;4982695;28;20561;-71
2023/08/05 12:30:22;;;;;;;1.30;1.20;;;21.50;99.90;;;;;;4975914;28;20748;-71
2023/08/05 12:32:50;;;;;;;2.03;1.20;;;21.40;99.90;;;;;;4994310;28;20673;-70
2023/08/05 12:35:17;;;;;;;1.23;0.95;;;21.40;99.90;;;;;;4997241;28;20220;-72
2023/08/05 12:37:44;;;;;;;2.25;1.00;;;21.40;99.90;;;;;;4997399;28;20271;-69
2023/08/05 12:40:13;;;;;;;1.30;1.20;;;21.60;99.90;;;;;;4991803;28;20212;-72
2023/08/05 12:42:41;;;;;;;2.15;1.20;;;21.60;99.90;;;;;;4980740;28;20220;-70
2023/08/05 12:45:08;;;;;;;3.33;1.27;;;21.70;99.90;;;;;;4967828;28;20232;-72
2023/08/05 12:47:36;;;;;;;1.10;0.90;;;21.70;99.90;;;;;;4996396;28;20895;-70
2023/08/05 12:50:05;;;;;;;1.70;1.30;;;21.80;99.90;;;;;;5000958;28;20220;-71